createdAt,value
2017-08-03T00:00:06.485Z,0
2017-08-03T00:01:06.723Z,0
2017-08-03T00:02:06.475Z,0
2017-08-03T00:03:06.496Z,0
2017-08-03T00:04:06.466Z,0
2017-08-03T00:05:06.467Z,0
2017-08-03T00:06:20.095Z,0
2017-08-03T00:07:06.438Z,0
2017-08-03T00:08:06.139Z,0
2017-08-03T00:09:06.455Z,0
2017-08-03T00:10:06.436Z,0
2017-08-03T00:11:06.128Z,0
2017-08-03T00:12:06.400Z,0
2017-08-03T00:13:06.415Z,0
2017-08-03T00:14:06.108Z,0
2017-08-03T00:15:06.400Z,0
2017-08-03T00:16:06.596Z,0
2017-08-03T00:17:06.111Z,0
2017-08-03T00:18:06.091Z,0
2017-08-03T00:19:06.380Z,0
2017-08-03T00:20:06.396Z,0
2017-08-03T00:21:06.367Z,0
2017-08-03T00:22:06.361Z,0
2017-08-03T00:23:06.366Z,0
2017-08-03T00:24:06.356Z,0
2017-08-03T00:25:06.335Z,0
2017-08-03T00:26:06.341Z,0
2017-08-03T00:27:06.331Z,0
2017-08-03T00:28:06.318Z,0
2017-08-03T00:29:06.020Z,0
2017-08-03T00:30:06.016Z,0
2017-08-03T00:31:06.004Z,0
2017-08-03T00:32:06.285Z,0
2017-08-03T00:33:06.297Z,0
2017-08-03T00:34:06.297Z,0
2017-08-03T00:35:06.308Z,0
2017-08-03T00:36:05.963Z,0
2017-08-03T00:37:05.955Z,0
2017-08-03T00:38:06.272Z,0
2017-08-03T00:39:06.275Z,0
2017-08-03T00:40:06.254Z,0
2017-08-03T00:41:05.954Z,0
2017-08-03T00:42:06.245Z,0
2017-08-03T00:43:06.230Z,0
2017-08-03T00:44:06.252Z,0
2017-08-03T00:45:05.922Z,0
2017-08-03T00:46:06.120Z,0
2017-08-03T00:47:05.905Z,0
2017-08-03T00:48:06.206Z,0
2017-08-03T00:49:06.210Z,0
2017-08-03T00:50:06.417Z,0
2017-08-03T00:51:06.396Z,0
2017-08-03T00:52:05.283Z,0
2017-08-03T00:53:05.874Z,0
2017-08-03T00:54:06.170Z,0
2017-08-03T00:55:06.166Z,0
2017-08-03T00:56:06.151Z,0
2017-08-03T00:57:06.154Z,0
2017-08-03T00:58:06.141Z,0
2017-08-03T00:59:06.144Z,0
2017-08-03T01:00:06.138Z,0
2017-08-03T01:01:06.117Z,0
2017-08-03T01:02:06.127Z,0
2017-08-03T01:03:05.804Z,0
2017-08-03T01:04:06.136Z,0
2017-08-03T01:05:06.117Z,0
2017-08-03T01:06:06.085Z,0
2017-08-03T01:07:05.799Z,0
2017-08-03T01:08:05.779Z,0
2017-08-03T01:09:06.084Z,0
2017-08-03T01:10:06.087Z,0
2017-08-03T01:11:06.073Z,0
2017-08-03T01:12:06.061Z,0
2017-08-03T01:13:06.077Z,0
2017-08-03T01:14:06.058Z,0
2017-08-03T01:15:06.067Z,0
2017-08-03T01:16:06.045Z,0
2017-08-03T01:17:06.034Z,0
2017-08-03T01:18:05.748Z,0
2017-08-03T01:19:06.255Z,0
2017-08-03T01:20:06.010Z,0
2017-08-03T01:21:05.717Z,0
2017-08-03T01:22:05.097Z,0
2017-08-03T01:23:06.012Z,0
2017-08-03T01:24:05.933Z,0
2017-08-03T01:25:06.217Z,0
2017-08-03T01:26:06.002Z,0
2017-08-03T01:27:05.995Z,0
2017-08-03T01:28:05.968Z,0
2017-08-03T01:29:06.163Z,0
2017-08-03T01:30:05.973Z,0
2017-08-03T01:31:05.959Z,0
2017-08-03T01:32:05.656Z,0
2017-08-03T01:33:05.964Z,0
2017-08-03T01:34:20.044Z,0
2017-08-03T01:35:05.631Z,0
2017-08-03T01:36:05.917Z,0
2017-08-03T01:37:05.605Z,0
2017-08-03T01:38:05.918Z,0
2017-08-03T01:39:05.902Z,0
2017-08-03T01:40:05.922Z,0
2017-08-03T01:41:05.600Z,0
2017-08-03T01:42:05.580Z,0
2017-08-03T01:43:05.590Z,0
2017-08-03T01:44:05.574Z,0
2017-08-03T01:45:05.875Z,0
2017-08-03T01:46:05.565Z,0
2017-08-03T01:47:05.874Z,0
2017-08-03T01:48:05.861Z,0
2017-08-03T01:49:05.548Z,0
2017-08-03T01:50:05.855Z,0
2017-08-03T01:51:05.836Z,0
2017-08-03T01:52:05.509Z,0
2017-08-03T01:53:05.825Z,0
2017-08-03T01:54:05.836Z,0
2017-08-03T01:55:05.831Z,0
2017-08-03T01:56:05.822Z,0
2017-08-03T01:57:05.797Z,0
2017-08-03T01:58:05.181Z,0
2017-08-03T01:59:05.798Z,0
2017-08-03T02:00:05.473Z,0
2017-08-03T02:01:05.769Z,0
2017-08-03T02:02:05.780Z,0
2017-08-03T02:04:05.942Z,0
2017-08-03T02:05:05.748Z,0
2017-08-03T02:06:05.459Z,0
2017-08-03T02:07:05.135Z,0
2017-08-03T02:08:05.735Z,0
2017-08-03T02:09:05.730Z,0
2017-08-03T02:10:05.731Z,0
2017-08-03T02:11:05.715Z,0
2017-08-03T02:12:05.711Z,0
2017-08-03T02:13:05.701Z,0
2017-08-03T02:14:05.691Z,0
2017-08-03T02:15:05.399Z,0
2017-08-03T02:16:05.696Z,0
2017-08-03T02:17:05.681Z,0
2017-08-03T02:18:05.680Z,0
2017-08-03T02:19:05.361Z,0
2017-08-03T02:20:05.370Z,0
2017-08-03T02:21:04.746Z,0
2017-08-03T02:22:05.342Z,0
2017-08-03T02:23:05.642Z,0
2017-08-03T02:24:05.638Z,0
2017-08-03T02:25:05.346Z,0
2017-08-03T02:26:05.324Z,0
2017-08-03T02:27:05.621Z,0
2017-08-03T02:28:05.623Z,0
2017-08-03T02:29:05.598Z,0
2017-08-03T02:30:05.624Z,0
2017-08-03T02:31:05.306Z,0
2017-08-03T02:32:05.606Z,0
2017-08-03T02:33:05.575Z,0
2017-08-03T02:34:05.186Z,0
2017-08-03T02:35:04.949Z,0
2017-08-03T02:36:05.559Z,0
2017-08-03T02:37:05.572Z,0
2017-08-03T02:38:05.545Z,0
2017-08-03T02:39:05.551Z,0
2017-08-03T02:40:05.550Z,0
2017-08-03T02:41:20.138Z,0
2017-08-03T02:42:05.228Z,0
2017-08-03T02:43:04.951Z,0
2017-08-03T02:44:19.178Z,0
2017-08-03T02:45:05.509Z,0
2017-08-03T02:46:05.207Z,0
2017-08-03T02:47:05.513Z,0
2017-08-03T02:48:05.182Z,0
2017-08-03T02:49:05.205Z,0
2017-08-03T02:50:05.169Z,0
2017-08-03T02:51:05.471Z,0
2017-08-03T02:52:05.156Z,0
2017-08-03T02:53:05.465Z,0
2017-08-03T02:54:05.458Z,0
2017-08-03T02:55:05.483Z,0
2017-08-03T02:56:05.442Z,0
2017-08-03T02:57:05.434Z,0
2017-08-03T02:58:05.431Z,0
2017-08-03T02:59:05.424Z,0
2017-08-03T03:00:05.420Z,0
2017-08-03T03:01:05.099Z,0
2017-08-03T03:02:05.396Z,0
2017-08-03T03:03:05.437Z,0
2017-08-03T03:04:05.101Z,0
2017-08-03T03:05:05.089Z,0
2017-08-03T03:06:05.385Z,0
2017-08-03T03:07:05.380Z,0
2017-08-03T03:08:05.065Z,0
2017-08-03T03:09:05.345Z,0
2017-08-03T03:10:05.352Z,0
2017-08-03T03:11:05.367Z,0
2017-08-03T03:12:05.356Z,0
2017-08-03T03:13:05.043Z,0
2017-08-03T03:14:05.323Z,0
2017-08-03T03:15:04.713Z,0
2017-08-03T03:16:05.527Z,0
2017-08-03T03:17:05.231Z,0
2017-08-03T03:18:05.299Z,0
2017-08-03T03:19:05.283Z,0
2017-08-03T03:20:05.292Z,0
2017-08-03T03:21:05.491Z,0
2017-08-03T03:22:18.677Z,0
2017-08-03T03:23:04.972Z,0
2017-08-03T03:24:04.957Z,0
2017-08-03T03:25:04.950Z,0
2017-08-03T03:26:05.265Z,0
2017-08-03T03:27:04.960Z,0
2017-08-03T03:28:05.250Z,0
2017-08-03T03:29:05.257Z,0
2017-08-03T03:30:04.615Z,0
2017-08-03T03:31:05.235Z,0
2017-08-03T03:32:05.218Z,0
2017-08-03T03:33:05.211Z,0
2017-08-03T03:34:05.194Z,0
2017-08-03T03:35:04.897Z,0
2017-08-03T03:36:05.198Z,0
2017-08-03T03:37:05.205Z,0
2017-08-03T03:38:04.879Z,0
2017-08-03T03:39:05.172Z,0
2017-08-03T03:40:04.863Z,0
2017-08-03T03:41:04.864Z,0
2017-08-03T03:42:05.164Z,5
2017-08-03T03:43:05.146Z,5
2017-08-03T03:44:04.835Z,5
2017-08-03T03:45:05.127Z,5
2017-08-03T03:46:04.834Z,5
2017-08-03T03:47:05.140Z,5
2017-08-03T03:48:04.819Z,10
2017-08-03T03:49:05.097Z,10
2017-08-03T03:50:05.136Z,10
2017-08-03T03:51:05.097Z,15
2017-08-03T03:52:04.788Z,15
2017-08-03T03:53:04.485Z,15
2017-08-03T03:54:05.076Z,20
2017-08-03T03:55:05.275Z,20
2017-08-03T03:56:04.751Z,20
2017-08-03T03:57:05.069Z,25
2017-08-03T03:58:05.057Z,25
2017-08-03T03:59:05.045Z,30
2017-08-03T04:00:04.424Z,30
2017-08-03T04:01:04.730Z,35
2017-08-03T04:02:04.727Z,40
2017-08-03T04:03:04.710Z,40
2017-08-03T04:04:05.011Z,45
2017-08-03T04:05:04.721Z,50
2017-08-03T04:06:04.696Z,50
2017-08-03T04:07:04.997Z,55
2017-08-03T04:08:04.995Z,55
2017-08-03T04:09:04.667Z,60
2017-08-03T04:10:04.673Z,65
2017-08-03T04:11:04.971Z,65
2017-08-03T04:12:04.965Z,70
2017-08-03T04:13:04.957Z,75
2017-08-03T04:14:04.645Z,80
2017-08-03T04:15:04.939Z,90
2017-08-03T04:16:04.949Z,95
2017-08-03T04:17:04.941Z,95
2017-08-03T04:18:04.919Z,100
2017-08-03T04:19:04.918Z,105
2017-08-03T04:20:04.604Z,105
2017-08-03T04:21:04.594Z,110
2017-08-03T04:22:04.606Z,115
2017-08-03T04:23:04.890Z,120
2017-08-03T04:24:04.594Z,125
2017-08-03T04:25:04.583Z,130
2017-08-03T04:26:04.881Z,135
2017-08-03T04:27:04.570Z,140
2017-08-03T04:28:04.845Z,145
2017-08-03T04:29:04.867Z,150
2017-08-03T04:30:04.845Z,155
2017-08-03T04:31:04.843Z,160
2017-08-03T04:32:04.545Z,165
2017-08-03T04:33:04.526Z,170
2017-08-03T04:34:04.824Z,170
2017-08-03T04:35:04.516Z,175
2017-08-03T04:36:04.812Z,180
2017-08-03T04:37:04.811Z,185
2017-08-03T04:38:04.813Z,190
2017-08-03T04:39:04.801Z,195
2017-08-03T04:40:04.784Z,200
2017-08-03T04:41:04.766Z,210
2017-08-03T04:42:04.463Z,215
2017-08-03T04:43:04.765Z,235
2017-08-03T04:44:04.760Z,255
2017-08-03T04:45:04.459Z,285
2017-08-03T04:46:04.758Z,300
2017-08-03T04:47:04.752Z,305
2017-08-03T04:48:04.735Z,305
2017-08-03T04:49:04.725Z,330
2017-08-03T04:50:04.426Z,385
2017-08-03T04:51:04.721Z,410
2017-08-03T04:52:04.409Z,415
2017-08-03T04:53:04.409Z,425
2017-08-03T04:54:04.404Z,420
2017-08-03T04:55:04.387Z,415
2017-08-03T04:56:04.687Z,300
2017-08-03T04:57:04.377Z,235
2017-08-03T04:58:04.692Z,230
2017-08-03T04:59:04.366Z,230
2017-08-03T05:00:04.373Z,240
2017-08-03T05:01:04.357Z,245
2017-08-03T05:02:04.645Z,275
2017-08-03T05:03:04.343Z,270
2017-08-03T05:04:04.639Z,290
2017-08-03T05:05:04.648Z,315
2017-08-03T05:06:04.334Z,355
2017-08-03T05:07:04.003Z,445
2017-08-03T05:08:04.335Z,605
2017-08-03T05:09:04.310Z,605
2017-08-03T05:10:04.622Z,615
2017-08-03T05:11:04.603Z,635
2017-08-03T05:12:04.583Z,645
2017-08-03T05:13:04.593Z,650
2017-08-03T05:14:04.576Z,685
2017-08-03T05:15:04.265Z,725
2017-08-03T05:16:04.273Z,720
2017-08-03T05:17:04.265Z,735
2017-08-03T05:18:04.559Z,745
2017-08-03T05:19:04.251Z,770
2017-08-03T05:20:04.554Z,835
2017-08-03T05:21:04.236Z,870
2017-08-03T05:22:04.239Z,870
2017-08-03T05:23:03.623Z,905
2017-08-03T05:24:04.230Z,940
2017-08-03T05:25:04.234Z,950
2017-08-03T05:26:04.515Z,950
2017-08-03T05:27:04.517Z,935
2017-08-03T05:28:04.210Z,1000
2017-08-03T05:29:04.186Z,1040
2017-08-03T05:30:04.211Z,1030
2017-08-03T05:31:04.193Z,1015
2017-08-03T05:32:04.484Z,1020
2017-08-03T05:33:04.173Z,935
2017-08-03T05:34:04.170Z,580
2017-08-03T05:35:04.473Z,570
2017-08-03T05:36:04.150Z,930
2017-08-03T05:37:04.166Z,745
2017-08-03T05:38:04.449Z,750
2017-08-03T05:39:04.434Z,600
2017-08-03T05:40:04.428Z,1075
2017-08-03T05:41:04.438Z,970
2017-08-03T05:42:04.128Z,900
2017-08-03T05:43:04.427Z,1125
2017-08-03T05:44:04.114Z,1155
2017-08-03T05:45:04.110Z,755
2017-08-03T05:46:04.401Z,1285
2017-08-03T05:47:04.109Z,710
2017-08-03T05:48:04.104Z,810
2017-08-03T05:49:04.110Z,1345
2017-08-03T05:50:04.088Z,1350
2017-08-03T05:51:04.407Z,1385
2017-08-03T05:52:04.382Z,1240
2017-08-03T05:53:04.357Z,1235
2017-08-03T05:54:04.372Z,1160
2017-08-03T05:55:04.099Z,1395
2017-08-03T05:56:04.036Z,1480
2017-08-03T05:57:04.050Z,910
2017-08-03T05:58:04.342Z,1435
2017-08-03T05:59:04.365Z,1385
2017-08-03T06:00:04.035Z,1335
2017-08-03T06:01:04.317Z,1290
2017-08-03T06:02:04.324Z,585
2017-08-03T06:03:04.322Z,550
2017-08-03T06:04:03.999Z,565
2017-08-03T06:05:03.999Z,580
2017-08-03T06:06:04.306Z,600
2017-08-03T06:07:03.689Z,620
2017-08-03T06:08:03.987Z,630
2017-08-03T06:09:04.280Z,625
2017-08-03T06:10:03.971Z,630
2017-08-03T06:11:03.971Z,670
2017-08-03T06:12:03.976Z,850
2017-08-03T06:13:03.967Z,1145
2017-08-03T06:14:03.960Z,1540
2017-08-03T06:15:03.951Z,1620
2017-08-03T06:16:03.975Z,1720
2017-08-03T06:17:03.942Z,1800
2017-08-03T06:18:04.242Z,1480
2017-08-03T06:19:03.636Z,1505
2017-08-03T06:20:03.937Z,905
2017-08-03T06:21:03.619Z,880
2017-08-03T06:22:03.917Z,1770
2017-08-03T06:23:04.217Z,1755
2017-08-03T06:24:03.904Z,805
2017-08-03T06:25:04.224Z,805
2017-08-03T06:26:04.204Z,865
2017-08-03T06:27:03.896Z,940
2017-08-03T06:28:04.199Z,915
2017-08-03T06:29:04.188Z,1060
2017-08-03T06:30:03.877Z,1315
2017-08-03T06:31:03.867Z,1895
2017-08-03T06:32:03.873Z,1495
2017-08-03T06:33:04.199Z,1760
2017-08-03T06:34:04.178Z,840
2017-08-03T06:35:04.169Z,835
2017-08-03T06:36:04.179Z,725
2017-08-03T06:37:04.150Z,635
2017-08-03T06:38:04.140Z,635
2017-08-03T06:39:03.839Z,795
2017-08-03T06:40:04.136Z,545
2017-08-03T06:41:04.117Z,1490
2017-08-03T06:42:04.145Z,1495
2017-08-03T06:43:03.819Z,1535
2017-08-03T06:44:03.814Z,1555
2017-08-03T06:45:03.810Z,1520
2017-08-03T06:46:04.105Z,1550
2017-08-03T06:47:03.805Z,1575
2017-08-03T06:48:03.794Z,1555
2017-08-03T06:49:03.797Z,1570
2017-08-03T06:50:04.073Z,1665
2017-08-03T06:51:04.083Z,1565
2017-08-03T06:52:03.774Z,1585
2017-08-03T06:53:04.073Z,1660
2017-08-03T06:54:04.065Z,1630
2017-08-03T06:55:03.745Z,1655
2017-08-03T06:56:04.084Z,1685
2017-08-03T06:57:04.056Z,1535
2017-08-03T06:58:04.057Z,1565
2017-08-03T06:59:04.052Z,1665
2017-08-03T07:00:03.737Z,1660
2017-08-03T07:01:04.088Z,1610
2017-08-03T07:02:04.041Z,1720
2017-08-03T07:03:04.033Z,1680
2017-08-03T07:04:04.030Z,1735
2017-08-03T07:05:03.712Z,1785
2017-08-03T07:06:04.007Z,1750
2017-08-03T07:07:04.023Z,1685
2017-08-03T07:08:04.016Z,1710
2017-08-03T07:09:04.009Z,1860
2017-08-03T07:10:04.003Z,2110
2017-08-03T07:11:03.995Z,2570
2017-08-03T07:12:03.979Z,2260
2017-08-03T07:13:03.985Z,1920
2017-08-03T07:14:03.972Z,1970
2017-08-03T07:15:03.973Z,2055
2017-08-03T07:16:03.969Z,1965
2017-08-03T07:17:03.673Z,1930
2017-08-03T07:18:03.661Z,2075
2017-08-03T07:19:03.647Z,2140
2017-08-03T07:20:03.953Z,2175
2017-08-03T07:21:03.942Z,1425
2017-08-03T07:22:03.954Z,2075
2017-08-03T07:23:03.643Z,2000
2017-08-03T07:24:03.920Z,1255
2017-08-03T07:25:03.929Z,1080
2017-08-03T07:26:03.646Z,1785
2017-08-03T07:27:03.923Z,1810
2017-08-03T07:28:03.950Z,1435
2017-08-03T07:29:03.922Z,1605
2017-08-03T07:30:03.910Z,1500
2017-08-03T07:31:03.908Z,2015
2017-08-03T07:32:03.602Z,1860
2017-08-03T07:33:03.898Z,2170
2017-08-03T07:34:03.597Z,2365
2017-08-03T07:35:03.892Z,2405
2017-08-03T07:36:03.900Z,2470
2017-08-03T07:37:03.608Z,2505
2017-08-03T07:38:03.585Z,2475
2017-08-03T07:39:03.869Z,2395
2017-08-03T07:40:03.869Z,2340
2017-08-03T07:41:03.588Z,2595
2017-08-03T07:42:03.883Z,2800
2017-08-03T07:43:03.874Z,2575
2017-08-03T07:44:03.566Z,2800
2017-08-03T07:45:03.868Z,2315
2017-08-03T07:46:03.866Z,2850
2017-08-03T07:47:03.861Z,2950
2017-08-03T07:48:03.540Z,2620
2017-08-03T07:49:03.549Z,2600
2017-08-03T07:50:03.855Z,3010
2017-08-03T07:51:03.849Z,3235
2017-08-03T07:52:03.531Z,1625
2017-08-03T07:53:03.847Z,3360
2017-08-03T07:54:03.831Z,1955
2017-08-03T07:55:03.519Z,1175
2017-08-03T07:56:03.824Z,1080
2017-08-03T07:57:03.514Z,1300
2017-08-03T07:58:03.828Z,1325
2017-08-03T07:59:03.817Z,2015
2017-08-03T08:00:03.800Z,3170
2017-08-03T08:01:03.809Z,2890
2017-08-03T08:02:03.820Z,2665
2017-08-03T08:03:03.498Z,3110
2017-08-03T08:04:03.789Z,3010
2017-08-03T08:05:03.803Z,2830
2017-08-03T08:06:03.499Z,3015
2017-08-03T08:07:03.489Z,3295
2017-08-03T08:08:03.791Z,3375
2017-08-03T08:09:03.786Z,3230
2017-08-03T08:10:03.783Z,2485
2017-08-03T08:11:03.796Z,2195
2017-08-03T08:12:03.780Z,2575
2017-08-03T08:13:03.783Z,2140
2017-08-03T08:14:03.461Z,2035
2017-08-03T08:15:03.457Z,2365
2017-08-03T08:16:03.758Z,1980
2017-08-03T08:17:03.456Z,1955
2017-08-03T08:18:03.766Z,1965
2017-08-03T08:19:03.461Z,2465
2017-08-03T08:20:03.449Z,2525
2017-08-03T08:21:03.753Z,2245
2017-08-03T08:22:03.744Z,2845
2017-08-03T08:23:03.772Z,2355
2017-08-03T08:24:03.432Z,2430
2017-08-03T08:25:03.738Z,2460
2017-08-03T08:26:03.731Z,2020
2017-08-03T08:27:03.717Z,2205
2017-08-03T08:28:03.712Z,2265
2017-08-03T08:29:03.709Z,2040
2017-08-03T08:30:03.714Z,1955
2017-08-03T08:31:03.405Z,2710
2017-08-03T08:32:03.393Z,3040
2017-08-03T08:33:03.399Z,3415
2017-08-03T08:34:03.692Z,2730
2017-08-03T08:35:03.703Z,3065
2017-08-03T08:36:03.695Z,2970
2017-08-03T08:37:03.382Z,3025
2017-08-03T08:38:03.695Z,2960
2017-08-03T08:39:03.685Z,3195
2017-08-03T08:40:03.710Z,3785
2017-08-03T08:41:03.075Z,3065
2017-08-03T08:42:03.365Z,2960
2017-08-03T08:43:03.378Z,3175
2017-08-03T08:44:03.670Z,3115
2017-08-03T08:45:03.364Z,2890
2017-08-03T08:46:03.074Z,2995
2017-08-03T08:47:03.671Z,3250
2017-08-03T08:48:03.064Z,3330
2017-08-03T08:49:03.647Z,3340
2017-08-03T08:50:03.651Z,3615
2017-08-03T08:51:03.647Z,3815
2017-08-03T08:52:03.644Z,3390
2017-08-03T08:53:03.655Z,3745
2017-08-03T08:54:03.651Z,3935
2017-08-03T08:55:03.634Z,3285
2017-08-03T08:56:03.032Z,3005
2017-08-03T08:57:03.327Z,3360
2017-08-03T08:58:03.638Z,3430
2017-08-03T08:59:03.012Z,3640
2017-08-03T09:00:03.632Z,3835
2017-08-03T09:01:03.388Z,3310
2017-08-03T09:02:03.319Z,2995
2017-08-03T09:03:03.614Z,2840
2017-08-03T09:04:03.317Z,3310
2017-08-03T09:05:03.619Z,3630
2017-08-03T09:06:03.617Z,3595
2017-08-03T09:07:03.317Z,3625
2017-08-03T09:08:03.616Z,3680
2017-08-03T09:09:03.612Z,3250
2017-08-03T09:10:03.603Z,2895
2017-08-03T09:11:03.626Z,3575
2017-08-03T09:12:03.602Z,3490
2017-08-03T09:13:03.611Z,3510
2017-08-03T09:14:03.606Z,3735
2017-08-03T09:15:03.588Z,3910
2017-08-03T09:16:03.598Z,4280
2017-08-03T09:17:03.604Z,3805
2017-08-03T09:18:03.599Z,3285
2017-08-03T09:19:03.602Z,3515
2017-08-03T09:20:03.599Z,3970
2017-08-03T09:21:03.570Z,4030
2017-08-03T09:22:03.586Z,3850
2017-08-03T09:23:03.584Z,3770
2017-08-03T09:24:03.575Z,3480
2017-08-03T09:25:03.275Z,3345
2017-08-03T09:26:03.267Z,3670
2017-08-03T09:27:02.958Z,3570
2017-08-03T09:28:03.571Z,3115
2017-08-03T09:29:03.563Z,3010
2017-08-03T09:30:03.562Z,3230
2017-08-03T09:31:03.571Z,3450
2017-08-03T09:32:03.248Z,3955
2017-08-03T09:33:03.547Z,4115
2017-08-03T09:34:03.544Z,3245
2017-08-03T09:35:03.539Z,3690
2017-08-03T09:36:03.563Z,3845
2017-08-03T09:37:03.543Z,3990
2017-08-03T09:38:02.931Z,4305
2017-08-03T09:39:03.533Z,4340
2017-08-03T09:40:02.922Z,4050
2017-08-03T09:41:03.533Z,3925
2017-08-03T09:42:03.544Z,2800
2017-08-03T09:43:03.521Z,4365
2017-08-03T09:44:03.539Z,4400
2017-08-03T09:45:03.539Z,4160
2017-08-03T09:46:02.927Z,1810
2017-08-03T09:47:03.530Z,1555
2017-08-03T09:48:02.905Z,1580
2017-08-03T09:49:03.506Z,1625
2017-08-03T09:50:03.506Z,1840
2017-08-03T09:51:03.509Z,3925
2017-08-03T09:52:02.912Z,1560
2017-08-03T09:53:03.220Z,1775
2017-08-03T09:54:03.511Z,4715
2017-08-03T09:55:03.482Z,4940
2017-08-03T09:56:03.494Z,5070
2017-08-03T09:57:03.171Z,3945
2017-08-03T09:58:03.481Z,4555
2017-08-03T09:59:03.496Z,5590
2017-08-03T10:00:03.482Z,4615
2017-08-03T10:01:03.184Z,4035
2017-08-03T10:02:03.464Z,3745
2017-08-03T10:03:03.172Z,2610
2017-08-03T10:04:03.147Z,3710
2017-08-03T10:05:03.153Z,3525
2017-08-03T10:06:03.457Z,3780
2017-08-03T10:07:03.449Z,4365
2017-08-03T10:08:02.836Z,4345
2017-08-03T10:09:03.440Z,4105
2017-08-03T10:10:03.446Z,4510
2017-08-03T10:11:02.832Z,2265
2017-08-03T10:12:02.832Z,1835
2017-08-03T10:13:03.140Z,3330
2017-08-03T10:14:03.440Z,2915
2017-08-03T10:15:02.828Z,3230
2017-08-03T10:16:03.111Z,2900
2017-08-03T10:17:03.435Z,2930
2017-08-03T10:18:03.425Z,3480
2017-08-03T10:19:02.501Z,2285
2017-08-03T10:20:03.434Z,2360
2017-08-03T10:21:02.817Z,2510
2017-08-03T10:22:03.430Z,3005
2017-08-03T10:23:02.803Z,3740
2017-08-03T10:24:03.432Z,4385
2017-08-03T10:25:03.113Z,4120
2017-08-03T10:26:03.412Z,4350
2017-08-03T10:27:03.119Z,3550
2017-08-03T10:28:03.418Z,3110
2017-08-03T10:29:02.489Z,2855
2017-08-03T10:30:02.807Z,2805
2017-08-03T10:31:03.414Z,2535
2017-08-03T10:32:02.792Z,2320
2017-08-03T10:33:03.128Z,2370
2017-08-03T10:34:02.800Z,2860
2017-08-03T10:35:03.093Z,3185
2017-08-03T10:36:03.401Z,3125
2017-08-03T10:37:03.108Z,3850
2017-08-03T10:38:03.100Z,3190
2017-08-03T10:39:03.092Z,2855
2017-08-03T10:40:03.397Z,2585
2017-08-03T10:41:03.086Z,3280
2017-08-03T10:42:03.093Z,2790
2017-08-03T10:43:03.395Z,2700
2017-08-03T10:44:03.374Z,2545
2017-08-03T10:45:03.380Z,2485
2017-08-03T10:46:03.080Z,2120
2017-08-03T10:47:03.387Z,2075
2017-08-03T10:48:03.379Z,1925
2017-08-03T10:49:03.078Z,1795
2017-08-03T10:50:03.374Z,1710
2017-08-03T10:51:03.369Z,1800
2017-08-03T10:52:03.068Z,1770
2017-08-03T10:53:03.051Z,1875
2017-08-03T10:54:03.072Z,1930
2017-08-03T10:55:03.353Z,2185
2017-08-03T10:56:03.361Z,2450
2017-08-03T10:57:03.055Z,3055
2017-08-03T10:58:03.361Z,2460
2017-08-03T10:59:03.033Z,2545
2017-08-03T11:00:03.052Z,2440
2017-08-03T11:01:03.041Z,2385
2017-08-03T11:02:03.045Z,2975
2017-08-03T11:03:03.047Z,2995
2017-08-03T11:04:03.042Z,3165
2017-08-03T11:05:02.712Z,1935
2017-08-03T11:06:03.024Z,1770
2017-08-03T11:07:03.030Z,1585
2017-08-03T11:08:03.317Z,1745
2017-08-03T11:09:03.320Z,1940
2017-08-03T11:10:03.316Z,2365
2017-08-03T11:11:03.325Z,4130
2017-08-03T11:12:03.002Z,4895
2017-08-03T11:13:03.009Z,2475
2017-08-03T11:14:03.007Z,2015
2017-08-03T11:15:03.310Z,1805
2017-08-03T11:16:03.293Z,1970
2017-08-03T11:19:35.092Z,2325
2017-08-03T11:20:03.298Z,1810
2017-08-03T11:21:03.283Z,1575
2017-08-03T11:22:02.996Z,1385
2017-08-03T11:23:02.684Z,1250
2017-08-03T11:24:02.984Z,1045
2017-08-03T11:25:02.683Z,880
2017-08-03T11:26:02.985Z,800
2017-08-03T11:27:02.981Z,785
2017-08-03T11:28:03.286Z,825
2017-08-03T11:29:03.302Z,855
2017-08-03T11:30:02.977Z,850
2017-08-03T11:31:02.964Z,810
2017-08-03T11:32:02.667Z,770
2017-08-03T11:33:02.969Z,780
2017-08-03T11:34:02.659Z,840
2017-08-03T11:35:03.277Z,815
2017-08-03T11:36:03.277Z,760
2017-08-03T11:37:03.264Z,760
2017-08-03T11:38:03.269Z,760
2017-08-03T11:39:03.263Z,705
2017-08-03T11:40:03.269Z,720
2017-08-03T11:41:02.949Z,880
2017-08-03T11:42:02.645Z,1245
2017-08-03T11:43:02.641Z,5045
2017-08-03T11:44:03.254Z,2390
2017-08-03T11:45:02.935Z,2280
2017-08-03T11:46:03.238Z,4945
2017-08-03T11:47:02.951Z,1870
2017-08-03T11:48:02.614Z,2065
2017-08-03T11:49:02.621Z,1915
2017-08-03T11:50:02.928Z,2010
2017-08-03T11:51:02.923Z,2225
2017-08-03T11:52:02.920Z,1995
2017-08-03T11:53:02.918Z,2020
2017-08-03T11:54:02.943Z,1710
2017-08-03T11:55:03.221Z,2115
2017-08-03T11:56:03.211Z,4140
2017-08-03T11:57:03.235Z,4955
2017-08-03T11:58:03.241Z,2600
2017-08-03T11:59:02.905Z,2335
2017-08-03T12:00:02.913Z,4930
2017-08-03T12:01:03.199Z,4445
2017-08-03T12:02:02.912Z,4520
2017-08-03T12:03:03.213Z,5305
2017-08-03T12:04:02.591Z,6130
2017-08-03T12:05:03.194Z,5410
2017-08-03T12:06:02.908Z,4965
2017-08-03T12:07:02.903Z,5255
2017-08-03T12:08:02.887Z,2625
2017-08-03T12:09:03.175Z,2965
2017-08-03T12:10:02.580Z,3880
2017-08-03T12:11:03.191Z,3985
2017-08-03T12:12:03.166Z,4540
2017-08-03T12:13:02.891Z,4905
2017-08-03T12:14:02.574Z,3230
2017-08-03T12:15:02.567Z,2705
2017-08-03T12:16:03.193Z,2750
2017-08-03T12:17:03.173Z,2670
2017-08-03T12:18:02.865Z,4760
2017-08-03T12:19:02.871Z,3435
2017-08-03T12:20:03.169Z,2355
2017-08-03T12:21:03.152Z,2360
2017-08-03T12:22:02.556Z,2155
2017-08-03T12:23:02.550Z,3300
2017-08-03T12:24:02.570Z,2730
2017-08-03T12:25:02.847Z,2715
2017-08-03T12:26:02.852Z,3090
2017-08-03T12:27:03.176Z,2840
2017-08-03T12:28:03.170Z,2420
2017-08-03T12:29:02.849Z,2380
2017-08-03T12:30:02.844Z,2620
2017-08-03T12:31:03.165Z,3850
2017-08-03T12:32:03.156Z,3735
2017-08-03T12:33:02.551Z,4030
2017-08-03T12:34:03.145Z,3850
2017-08-03T12:35:02.840Z,3560
2017-08-03T12:36:03.151Z,3645
2017-08-03T12:37:03.141Z,4645
2017-08-03T12:38:03.146Z,5015
2017-08-03T12:39:02.853Z,4725
2017-08-03T12:40:03.155Z,5035
2017-08-03T12:41:03.156Z,4235
2017-08-03T12:42:02.843Z,4195
2017-08-03T12:43:02.855Z,3730
2017-08-03T12:44:02.531Z,3155
2017-08-03T12:45:02.844Z,3785
2017-08-03T12:46:03.130Z,4360
2017-08-03T12:47:02.835Z,4355
2017-08-03T12:48:03.126Z,3910
2017-08-03T12:49:02.822Z,2540
2017-08-03T12:50:02.552Z,3990
2017-08-03T12:51:03.135Z,4600
2017-08-03T12:52:02.828Z,4395
2017-08-03T12:53:02.841Z,2730
2017-08-03T12:54:03.152Z,4610
2017-08-03T12:55:03.154Z,3075
2017-08-03T12:56:02.844Z,4905
2017-08-03T12:57:02.823Z,4225
2017-08-03T12:58:03.154Z,4025
2017-08-03T12:59:02.535Z,4045
2017-08-03T13:00:03.135Z,4225
2017-08-03T13:01:03.127Z,4160
2017-08-03T13:02:02.534Z,4665
2017-08-03T13:03:02.830Z,3145
2017-08-03T13:04:03.126Z,4030
2017-08-03T13:05:02.818Z,4030
2017-08-03T13:06:02.522Z,4450
2017-08-03T13:07:02.811Z,4650
2017-08-03T13:08:02.817Z,4375
2017-08-03T13:09:02.813Z,4320
2017-08-03T13:10:03.127Z,4560
2017-08-03T13:11:03.130Z,4395
2017-08-03T13:12:03.115Z,4695
2017-08-03T13:13:02.830Z,5020
2017-08-03T13:14:03.123Z,4000
2017-08-03T13:15:03.109Z,1985
2017-08-03T13:16:03.122Z,4170
2017-08-03T13:17:02.506Z,4245
2017-08-03T13:18:02.202Z,3845
2017-08-03T13:19:02.504Z,3860
2017-08-03T13:20:02.194Z,1205
2017-08-03T13:21:03.105Z,1940
2017-08-03T13:22:02.801Z,3480
2017-08-03T13:23:02.813Z,3565
2017-08-03T13:24:03.105Z,3415
2017-08-03T13:25:02.802Z,3245
2017-08-03T13:26:03.108Z,3045
2017-08-03T13:27:02.784Z,3060
2017-08-03T13:28:03.099Z,3165
2017-08-03T13:29:02.788Z,3085
2017-08-03T13:30:02.791Z,2890
2017-08-03T13:31:02.788Z,2970
2017-08-03T13:32:02.775Z,3165
2017-08-03T13:33:02.472Z,3420
2017-08-03T13:34:02.475Z,3420
2017-08-03T13:35:02.789Z,3380
2017-08-03T13:36:02.486Z,3420
2017-08-03T13:37:02.771Z,3505
2017-08-03T13:38:03.075Z,3490
2017-08-03T13:39:02.766Z,3355
2017-08-03T13:40:03.063Z,3440
2017-08-03T13:41:02.783Z,3590
2017-08-03T13:42:02.754Z,3840
2017-08-03T13:43:03.069Z,4005
2017-08-03T13:44:02.748Z,4105
2017-08-03T13:45:03.090Z,4135
2017-08-03T13:46:02.750Z,4190
2017-08-03T13:47:03.075Z,3340
2017-08-03T13:48:02.745Z,3950
2017-08-03T13:49:02.758Z,3975
2017-08-03T13:50:02.441Z,3880